Time;durP1;ratioP1;P1;durP2;ratioP2;P2;SDS_P1;SDS_P2;PMS_P1;PMS_P2;Temp;Humidity;BMP_temperature;BMP_pressure;BME280_temperature;BME280_humidity;BME280_pressure;Samples;Min_cycle;Max_cycle;Signal;HPM_P1;HPM_P2
2021/12/02 00:01:16;;;;;;;8.30;1.48;;;4.40;99.90;;;;;;5052094;28;20040;-69
2021/12/02 00:03:42;;;;;;;5.55;1.35;;;4.30;99.90;;;;;;5052285;28;20441;-69
2021/12/02 00:06:10;;;;;;;3.78;1.20;;;4.20;99.90;;;;;;5052033;28;20095;-70
2021/12/02 00:08:36;;;;;;;7.28;1.45;;;4.20;99.90;;;;;;5052181;28;20132;-69
2021/12/02 00:11:02;;;;;;;4.82;1.10;;;4.20;99.90;;;;;;5051594;28;20124;-69
2021/12/02 00:13:30;;;;;;;5.55;1.20;;;4.20;99.90;;;;;;5051928;28;20060;-69
2021/12/02 00:16:06;;;;;;;5.18;1.15;;;4.10;99.90;;;;;;5052156;28;20056;-69
2021/12/02 00:21:03;;;;;;;6.25;1.10;;;4.10;99.90;;;;;;5052124;28;20465;-69
2021/12/02 00:21:26;;;;;;;4.93;1.23;;;4.20;99.90;;;;;;5052401;28;20055;-69
2021/12/02 00:24:05;;;;;;;5.87;1.37;;;4.20;99.90;;;;;;5052359;28;20047;-69
2021/12/02 00:26:34;;;;;;;4.50;1.40;;;4.20;99.90;;;;;;5033343;28;20338;-69
2021/12/02 00:29:02;;;;;;;5.25;1.20;;;4.10;99.90;;;;;;5032210;28;20136;-69
2021/12/02 00:31:31;;;;;;;5.22;1.27;;;4.10;99.90;;;;;;5032439;28;20056;-69
2021/12/02 00:33:59;;;;;;;5.95;1.30;;;4.10;99.90;;;;;;5036023;28;20047;-70
2021/12/02 00:36:28;;;;;;;5.97;1.75;;;4.10;99.90;;;;;;5051760;28;20425;-69
2021/12/02 00:38:55;;;;;;;6.20;1.25;;;4.10;99.90;;;;;;5051843;28;20350;-69
2021/12/02 00:41:24;;;;;;;8.70;1.70;;;4.10;99.90;;;;;;5051935;28;20090;-69
2021/12/02 00:43:52;;;;;;;4.53;1.15;;;4.10;99.90;;;;;;5051640;28;20045;-69
2021/12/02 00:46:20;;;;;;;4.47;1.25;;;4.10;99.90;;;;;;5051795;28;20045;-69
2021/12/02 00:48:46;;;;;;;6.03;1.40;;;4.10;99.90;;;;;;5051571;28;20091;-68
2021/12/02 00:51:13;;;;;;;6.90;1.55;;;4.10;99.90;;;;;;5051864;28;20123;-69
2021/12/02 00:53:46;;;;;;;4.63;1.20;;;4.10;99.90;;;;;;5041293;28;20133;-68
2021/12/02 00:56:16;;;;;;;7.60;1.38;;;4.10;99.90;;;;;;5051699;28;20045;-69
2021/12/02 00:58:47;;;;;;;7.85;1.38;;;4.10;99.90;;;;;;5051846;28;20049;-69
2021/12/02 01:01:18;;;;;;;7.60;1.42;;;4.00;99.90;;;;;;5051598;28;20041;-68
2021/12/02 01:03:46;;;;;;;7.95;1.52;;;4.10;99.90;;;;;;5051616;28;20049;-69
2021/12/02 01:06:12;;;;;;;11.55;1.80;;;4.10;99.90;;;;;;5035043;28;20056;-68
2021/12/02 01:08:40;;;;;;;11.68;2.20;;;4.10;99.90;;;;;;5051625;28;20037;-69
2021/12/02 01:11:08;;;;;;;11.32;1.90;;;4.10;99.90;;;;;;5051348;28;20437;-69
2021/12/02 01:13:34;;;;;;;19.10;2.13;;;4.10;99.90;;;;;;5051376;28;20057;-68
2021/12/02 01:16:00;;;;;;;14.55;2.10;;;4.10;99.90;;;;;;5051062;28;20041;-68
2021/12/02 01:18:26;;;;;;;15.77;2.05;;;4.10;99.90;;;;;;5051822;28;20041;-69
2021/12/02 01:20:53;;;;;;;12.57;2.30;;;4.10;99.90;;;;;;5055232;28;20105;-68
2021/12/02 01:23:20;;;;;;;15.93;1.95;;;4.10;99.90;;;;;;5055190;28;20037;-69
2021/12/02 01:26:08;;;;;;;12.10;2.60;;;4.00;99.90;;;;;;5054774;28;20041;-68
2021/12/02 01:28:36;;;;;;;21.27;3.25;;;4.00;99.90;;;;;;5054938;28;20119;-68
2021/12/02 01:31:02;;;;;;;21.55;2.90;;;4.00;99.90;;;;;;5054765;28;20087;-69
2021/12/02 01:33:28;;;;;;;12.13;1.67;;;3.90;99.90;;;;;;5055216;28;20041;-69
2021/12/02 01:35:59;;;;;;;12.07;2.80;;;3.90;99.90;;;;;;5054973;28;20036;-68
2021/12/02 01:38:26;;;;;;;13.57;2.90;;;3.90;99.90;;;;;;5054961;28;20040;-69
2021/12/02 01:40:54;;;;;;;12.23;2.05;;;3.90;99.90;;;;;;5054477;28;20127;-68
2021/12/02 01:43:21;;;;;;;11.48;1.92;;;3.90;99.90;;;;;;5054949;28;20767;-69
2021/12/02 01:45:47;;;;;;;12.23;1.60;;;3.90;99.90;;;;;;5054674;28;20040;-68
2021/12/02 01:48:23;;;;;;;4.03;1.10;;;3.90;99.90;;;;;;5055011;28;20417;-68
2021/12/02 01:51:04;;;;;;;7.05;1.55;;;3.80;99.90;;;;;;5054579;28;20045;-69
2021/12/02 01:53:38;;;;;;;5.28;1.10;;;3.80;99.90;;;;;;5044494;28;20124;-69
2021/12/02 01:56:15;;;;;;;6.03;1.23;;;3.80;99.90;;;;;;5055195;28;20041;-69
2021/12/02 01:58:49;;;;;;;7.50;1.50;;;3.80;99.90;;;;;;5054086;28;20080;-68
2021/12/02 02:01:26;;;;;;;6.18;1.10;;;3.90;99.90;;;;;;5054380;28;20454;-69
2021/12/02 02:03:54;;;;;;;4.18;0.98;;;3.90;99.90;;;;;;5054278;28;20083;-68
2021/12/02 02:06:29;;;;;;;5.68;1.00;;;3.90;99.90;;;;;;5054297;28;20041;-69
2021/12/02 02:08:59;;;;;;;4.30;0.80;;;3.80;99.90;;;;;;5037598;28;20132;-69
2021/12/02 02:11:27;;;;;;;1.30;0.50;;;3.70;99.90;;;;;;5054411;28;20044;-69
2021/12/02 02:13:53;;;;;;;2.20;0.70;;;3.60;99.90;;;;;;5053802;28;20065;-70
2021/12/02 02:16:19;;;;;;;2.67;0.85;;;3.50;99.90;;;;;;5054054;28;20078;-70
2021/12/02 02:18:45;;;;;;;2.03;0.47;;;3.40;99.90;;;;;;5054000;28;20462;-70
2021/12/02 02:21:14;;;;;;;2.20;0.70;;;3.40;99.90;;;;;;5054048;28;20064;-70
2021/12/02 02:24:01;;;;;;;2.25;0.40;;;3.30;99.90;;;;;;5037231;28;20037;-70
2021/12/02 02:26:33;;;;;;;2.60;0.70;;;3.20;99.90;;;;;;5053739;28;20451;-71
2021/12/02 02:28:59;;;;;;;3.70;0.75;;;3.20;99.90;;;;;;5053918;28;20051;-71
2021/12/02 02:31:28;;;;;;;1.00;0.25;;;3.10;99.90;;;;;;5036104;28;20037;-70
2021/12/02 02:33:54;;;;;;;2.78;0.57;;;3.10;99.90;;;;;;5053538;28;20044;-70
2021/12/02 02:36:22;;;;;;;1.65;0.55;;;3.00;99.90;;;;;;5053992;28;20044;-70
2021/12/02 02:38:55;;;;;;;3.53;0.50;;;2.90;99.90;;;;;;5053584;28;20040;-70
2021/12/02 02:41:24;;;;;;;0.88;0.40;;;2.90;99.90;;;;;;5054001;28;20037;-70
2021/12/02 02:43:55;;;;;;;2.55;0.60;;;2.80;99.90;;;;;;5053388;28;20421;-71
2021/12/02 02:46:28;;;;;;;2.80;0.52;;;2.80;99.90;;;;;;5053658;28;20059;-71
2021/12/02 02:48:55;;;;;;;1.27;0.40;;;2.70;99.90;;;;;;5053199;28;20052;-70
2021/12/02 02:51:22;;;;;;;3.20;0.50;;;2.60;99.90;;;;;;5053617;28;20098;-70
2021/12/02 02:53:54;;;;;;;2.72;0.43;;;2.60;99.90;;;;;;5053116;28;20040;-70
2021/12/02 02:56:22;;;;;;;1.50;0.30;;;2.60;99.90;;;;;;5053247;28;20128;-70
2021/12/02 03:06:58;;;;;;;2.53;0.80;;;2.50;99.90;;;;;;5053260;28;20466;-69
2021/12/02 03:11:58;;;;;;;4.57;0.90;;;2.60;99.90;;;;;;5053470;28;20122;-69
2021/12/02 03:14:35;;;;;;;5.18;0.85;;;2.60;99.90;;;;;;5052836;28;20060;-68
2021/12/02 03:17:00;;;;;;;2.15;0.85;;;2.60;99.90;;;;;;5053027;28;20056;-69
2021/12/02 03:19:27;;;;;;;7.28;1.50;;;2.50;99.90;;;;;;5052695;28;20037;-69
2021/12/02 03:21:55;;;;;;;2.47;0.88;;;2.50;99.90;;;;;;5036625;28;20041;-69
2021/12/02 03:24:21;;;;;;;3.33;1.10;;;2.50;99.90;;;;;;5052545;28;20596;-69
2021/12/02 03:26:50;;;;;;;5.63;1.40;;;2.60;99.90;;;;;;5053120;28;20052;-69
2021/12/02 03:29:16;;;;;;;2.67;0.80;;;2.60;99.90;;;;;;5052763;28;20359;-69
2021/12/02 03:31:43;;;;;;;9.60;1.80;;;2.60;99.90;;;;;;5052537;28;20056;-69
2021/12/02 03:34:09;;;;;;;7.07;1.80;;;2.60;99.90;;;;;;5052854;28;20087;-69
2021/12/02 03:36:36;;;;;;;11.95;1.50;;;2.70;99.90;;;;;;5052536;28;20538;-69
2021/12/02 03:39:05;;;;;;;5.90;1.00;;;2.70;99.90;;;;;;5052295;28;20462;-69
2021/12/02 03:41:31;;;;;;;2.33;0.52;;;2.80;99.90;;;;;;5052042;28;20037;-69
2021/12/02 03:43:57;;;;;;;1.85;0.70;;;2.70;99.90;;;;;;5052496;28;20454;-69
2021/12/02 03:46:24;;;;;;;1.50;0.43;;;2.70;99.90;;;;;;5035781;28;20071;-69
2021/12/02 03:48:53;;;;;;;3.60;0.47;;;2.70;99.90;;;;;;5052421;28;20048;-69
2021/12/02 03:51:18;;;;;;;3.00;0.50;;;2.60;99.90;;;;;;5052328;28;20040;-69
2021/12/02 03:53:45;;;;;;;2.38;0.60;;;2.60;99.90;;;;;;5052212;28;20171;-69
2021/12/02 03:56:11;;;;;;;2.47;0.63;;;2.60;99.90;;;;;;5052282;28;20036;-69
2021/12/02 03:58:40;;;;;;;3.28;0.43;;;2.60;99.90;;;;;;5052296;28;20051;-68
2021/12/02 04:01:07;;;;;;;1.05;0.35;;;2.60;99.90;;;;;;5052582;28;20145;-69
2021/12/02 04:03:33;;;;;;;1.48;0.50;;;2.70;99.90;;;;;;5052678;28;20039;-68
2021/12/02 04:05:59;;;;;;;3.22;0.98;;;2.70;99.90;;;;;;5036014;28;20135;-69
2021/12/02 04:14:06;;;;;;;2.70;0.52;;;3.00;99.90;;;;;;5051910;28;20049;-68
2021/12/02 04:16:38;;;;;;;2.55;0.98;;;3.20;99.90;;;;;;5032276;28;20041;-70
2021/12/02 04:19:06;;;;;;;4.13;0.85;;;3.10;99.90;;;;;;5031692;28;20128;-70
2021/12/02 04:21:32;;;;;;;4.10;0.68;;;3.10;99.90;;;;;;5032085;28;20044;-71
2021/12/02 04:23:57;;;;;;;2.90;0.50;;;3.10;99.90;;;;;;5034083;28;20041;-72
2021/12/02 04:26:23;;;;;;;1.40;0.60;;;3.10;99.90;;;;;;5052301;28;20135;-71
2021/12/02 04:28:49;;;;;;;2.60;0.70;;;3.10;99.90;;;;;;5051726;28;20052;-70
2021/12/02 04:31:14;;;;;;;4.50;0.70;;;3.00;99.90;;;;;;5052390;28;20064;-70
2021/12/02 04:33:40;;;;;;;3.45;0.50;;;3.00;99.90;;;;;;5035538;28;20056;-70
2021/12/02 04:36:06;;;;;;;4.20;0.88;;;3.00;99.90;;;;;;5051577;28;20041;-70
2021/12/02 04:38:33;;;;;;;1.50;0.40;;;3.00;99.90;;;;;;5034997;28;20044;-71
2021/12/02 04:40:58;;;;;;;1.90;0.60;;;3.00;99.90;;;;;;5052497;28;20049;-70
2021/12/02 04:43:24;;;;;;;0.90;0.57;;;2.90;99.90;;;;;;5052235;28;20040;-69
2021/12/02 04:45:50;;;;;;;3.15;1.08;;;2.90;99.90;;;;;;5051456;28;20037;-69
2021/12/02 04:48:16;;;;;;;3.15;0.77;;;2.90;99.90;;;;;;5052087;28;20044;-69
2021/12/02 04:50:42;;;;;;;3.90;0.60;;;2.90;99.90;;;;;;5051806;28;20033;-70
2021/12/02 04:53:08;;;;;;;5.53;0.85;;;2.90;99.90;;;;;;5044627;28;20447;-70
2021/12/02 04:55:34;;;;;;;3.65;0.60;;;3.00;99.90;;;;;;5050811;28;20441;-71
2021/12/02 04:58:02;;;;;;;3.58;0.50;;;3.00;99.90;;;;;;5055658;28;20045;-70
2021/12/02 05:00:28;;;;;;;3.08;0.60;;;3.00;99.90;;;;;;5055437;28;20068;-70
2021/12/02 05:02:54;;;;;;;4.32;0.63;;;3.00;99.90;;;;;;5055834;28;20082;-70
2021/12/02 05:05:20;;;;;;;1.70;0.80;;;3.00;99.90;;;;;;5055328;28;20087;-69
2021/12/02 05:07:47;;;;;;;9.00;1.27;;;3.00;99.90;;;;;;5055377;28;20056;-70
2021/12/02 05:10:12;;;;;;;4.38;0.60;;;3.10;99.90;;;;;;5055057;28;20048;-70
2021/12/02 05:12:38;;;;;;;3.55;0.60;;;3.00;99.90;;;;;;5055544;28;20103;-70
2021/12/02 05:15:04;;;;;;;2.00;0.50;;;3.00;99.90;;;;;;5054719;28;20053;-70
2021/12/02 05:17:30;;;;;;;2.30;0.38;;;3.00;99.90;;;;;;5038504;28;20049;-70
2021/12/02 05:19:55;;;;;;;4.35;0.73;;;2.90;99.90;;;;;;5053749;28;20052;-69
2021/12/02 05:22:21;;;;;;;2.25;0.30;;;2.90;99.90;;;;;;5053928;28;20037;-69
2021/12/02 05:24:47;;;;;;;3.13;0.80;;;2.90;99.90;;;;;;5054358;28;20038;-69
2021/12/02 05:27:14;;;;;;;3.22;0.70;;;2.80;99.90;;;;;;5054510;28;20492;-70
2021/12/02 05:29:40;;;;;;;2.05;0.63;;;2.80;99.90;;;;;;5037515;28;20045;-69
2021/12/02 05:32:06;;;;;;;2.50;0.50;;;2.70;99.90;;;;;;5054992;28;20041;-69
2021/12/02 05:34:32;;;;;;;3.63;0.70;;;2.60;99.90;;;;;;5054503;28;20040;-68
2021/12/02 05:36:58;;;;;;;6.20;0.82;;;2.60;99.90;;;;;;5055314;28;20037;-69
2021/12/02 05:39:23;;;;;;;3.35;0.50;;;2.60;99.90;;;;;;5054679;28;20072;-70
2021/12/02 05:41:53;;;;;;;1.98;0.38;;;2.50;99.90;;;;;;5054835;28;20049;-68
2021/12/02 05:44:23;;;;;;;2.30;0.45;;;2.50;99.90;;;;;;5054485;28;20040;-68
2021/12/02 05:46:50;;;;;;;2.08;0.50;;;2.50;99.90;;;;;;5054917;28;20052;-68
2021/12/02 05:49:16;;;;;;;1.50;0.40;;;2.50;99.90;;;;;;5055736;28;20037;-69
2021/12/02 05:51:42;;;;;;;1.38;0.52;;;2.60;99.90;;;;;;5051686;28;20140;-70
2021/12/02 05:54:08;;;;;;;1.90;0.40;;;2.60;99.90;;;;;;5051784;28;20426;-71
2021/12/02 05:56:35;;;;;;;0.52;0.20;;;2.60;99.90;;;;;;5037121;28;20619;-69
2021/12/02 05:59:00;;;;;;;1.10;0.32;;;2.60;99.90;;;;;;5053688;28;20029;-68
2021/12/02 06:01:26;;;;;;;1.15;0.50;;;2.60;99.90;;;;;;5053649;28;20143;-69
2021/12/02 06:03:52;;;;;;;1.10;0.65;;;2.50;99.90;;;;;;5054451;28;20045;-69
2021/12/02 06:06:18;;;;;;;2.17;0.80;;;2.60;99.90;;;;;;5035776;28;20381;-69
2021/12/02 06:08:46;;;;;;;1.20;0.80;;;2.50;99.90;;;;;;5052670;28;20044;-70
2021/12/02 06:11:11;;;;;;;0.68;0.45;;;2.60;99.90;;;;;;5053256;28;20040;-68
2021/12/02 06:13:38;;;;;;;3.75;1.02;;;2.60;99.90;;;;;;5035208;28;20454;-69
2021/12/02 06:16:04;;;;;;;4.03;0.90;;;2.60;99.90;;;;;;5019341;28;20045;-68
2021/12/02 06:18:29;;;;;;;3.83;0.50;;;2.60;99.90;;;;;;5033267;28;20041;-68
2021/12/02 06:20:55;;;;;;;2.00;0.63;;;2.60;99.90;;;;;;5017875;28;20091;-68
2021/12/02 06:23:22;;;;;;;1.48;0.60;;;2.50;99.90;;;;;;5034066;28;20041;-68
2021/12/02 06:25:48;;;;;;;2.88;1.00;;;2.60;99.90;;;;;;5050376;28;20033;-68
2021/12/02 06:28:15;;;;;;;1.58;0.73;;;2.50;99.90;;;;;;5055236;28;20091;-66
2021/12/02 06:30:41;;;;;;;1.40;0.68;;;2.50;99.90;;;;;;5054617;28;20081;-70
2021/12/02 06:33:06;;;;;;;2.08;0.80;;;2.40;99.90;;;;;;5054208;28;20072;-71
2021/12/02 06:35:32;;;;;;;2.47;0.95;;;2.40;99.90;;;;;;5037226;28;20102;-68
2021/12/02 06:37:58;;;;;;;5.55;1.00;;;2.40;99.90;;;;;;5054012;28;20056;-69
2021/12/02 06:40:24;;;;;;;1.85;0.82;;;2.30;99.90;;;;;;5053616;28;20055;-69
2021/12/02 06:42:50;;;;;;;2.83;0.70;;;2.30;99.90;;;;;;5053841;28;20090;-68
2021/12/02 06:45:16;;;;;;;1.23;0.80;;;2.20;99.90;;;;;;5053570;28;20044;-68
2021/12/02 06:47:41;;;;;;;1.30;0.80;;;2.10;99.90;;;;;;5053600;28;20036;-69
2021/12/02 06:50:16;;;;;;;1.60;0.77;;;2.10;99.90;;;;;;5053479;28;20041;-70
2021/12/02 06:52:42;;;;;;;3.42;1.00;;;2.00;99.90;;;;;;5053652;28;20033;-65
2021/12/02 06:55:10;;;;;;;2.25;1.05;;;1.90;99.90;;;;;;5053187;28;20124;-68
2021/12/02 06:57:36;;;;;;;1.58;0.90;;;1.90;99.90;;;;;;5053555;28;20041;-68
2021/12/02 07:00:07;;;;;;;1.05;0.73;;;1.90;99.90;;;;;;5053515;28;20032;-68
2021/12/02 07:02:33;;;;;;;0.68;0.68;;;1.90;99.90;;;;;;5053428;28;20032;-67
2021/12/02 07:04:59;;;;;;;1.48;0.40;;;1.90;99.90;;;;;;5052936;28;20048;-63
2021/12/02 07:07:30;;;;;;;1.50;0.40;;;1.90;99.90;;;;;;5054422;28;20055;-64
2021/12/02 07:09:55;;;;;;;1.42;0.80;;;1.90;99.90;;;;;;5053905;28;20064;-65
2021/12/02 07:12:28;;;;;;;3.22;1.42;;;1.90;99.90;;;;;;5054210;28;20474;-65
2021/12/02 07:14:54;;;;;;;2.75;1.48;;;1.90;99.90;;;;;;5052959;28;20060;-65
2021/12/02 07:17:20;;;;;;;3.20;1.10;;;1.90;99.90;;;;;;5052363;28;20053;-65
2021/12/02 07:19:46;;;;;;;5.53;1.45;;;1.90;99.90;;;;;;5053656;28;20036;-66
2021/12/02 07:22:11;;;;;;;2.50;0.65;;;1.90;99.90;;;;;;5053423;28;20072;-67
2021/12/02 07:24:37;;;;;;;2.35;0.38;;;2.00;99.90;;;;;;5052570;28;20051;-66
2021/12/02 07:27:05;;;;;;;1.67;0.50;;;2.00;99.90;;;;;;5052970;28;20129;-66
2021/12/02 07:29:31;;;;;;;5.57;0.80;;;2.00;99.90;;;;;;5052610;28;20048;-66
2021/12/02 07:32:01;;;;;;;2.08;0.47;;;2.10;99.90;;;;;;5053007;28;20045;-67
2021/12/02 07:34:32;;;;;;;2.05;0.70;;;2.10;99.90;;;;;;5037142;28;20049;-68
2021/12/02 07:36:58;;;;;;;1.45;0.70;;;2.10;99.90;;;;;;5053418;28;20450;-68
2021/12/02 07:39:25;;;;;;;3.97;1.08;;;2.20;99.90;;;;;;5052805;28;20295;-67
2021/12/02 07:41:51;;;;;;;1.13;0.88;;;2.30;99.90;;;;;;5036433;28;20041;-67
2021/12/02 07:44:18;;;;;;;1.90;0.65;;;2.40;99.90;;;;;;5052833;28;20048;-67
2021/12/02 07:46:44;;;;;;;0.85;0.65;;;2.50;99.90;;;;;;5052814;28;20083;-67
2021/12/02 07:49:14;;;;;;;3.78;1.20;;;2.50;99.90;;;;;;5052610;28;20068;-68
2021/12/02 07:51:44;;;;;;;2.70;0.90;;;2.60;99.90;;;;;;5052418;28;20041;-68
2021/12/02 07:54:12;;;;;;;1.33;0.70;;;2.60;99.90;;;;;;5047339;28;20044;-66
2021/12/02 07:56:38;;;;;;;0.22;0.22;;;2.70;99.90;;;;;;5052280;28;20051;-67
2021/12/02 07:59:05;;;;;;;2.92;0.85;;;2.70;99.90;;;;;;5035743;28;20412;-67
2021/12/02 08:01:34;;;;;;;0.77;0.60;;;2.70;99.90;;;;;;5036186;28;20040;-68
2021/12/02 08:04:00;;;;;;;3.65;0.43;;;2.70;99.90;;;;;;5052722;28;20075;-67
2021/12/02 08:06:26;;;;;;;1.00;0.30;;;2.70;99.90;;;;;;5053120;28;20068;-68
2021/12/02 08:08:52;;;;;;;2.05;0.95;;;2.70;99.90;;;;;;5052294;28;20052;-67
2021/12/02 08:11:18;;;;;;;1.40;0.30;;;2.70;99.90;;;;;;5052521;28;20040;-67
2021/12/02 08:13:44;;;;;;;1.98;0.50;;;2.70;99.90;;;;;;5051920;28;20481;-67
2021/12/02 08:16:09;;;;;;;1.92;0.75;;;2.70;99.90;;;;;;5051903;28;20055;-67
2021/12/02 08:18:35;;;;;;;1.48;1.00;;;2.60;99.90;;;;;;5052181;28;20041;-66
2021/12/02 08:21:01;;;;;;;1.48;0.57;;;2.60;99.90;;;;;;5053013;28;20041;-66
2021/12/02 08:23:27;;;;;;;2.13;1.55;;;2.60;99.90;;;;;;5052915;28;20037;-68
2021/12/02 08:25:54;;;;;;;1.08;0.80;;;2.70;99.90;;;;;;5052057;28;20120;-66
2021/12/02 08:28:20;;;;;;;2.17;0.70;;;2.70;99.90;;;;;;5054028;28;20622;-66
2021/12/02 08:30:46;;;;;;;2.47;1.10;;;2.70;99.90;;;;;;5057473;28;20147;-68
2021/12/02 08:33:14;;;;;;;1.70;0.90;;;2.70;99.90;;;;;;5056180;28;20454;-66
2021/12/02 08:35:41;;;;;;;2.97;1.50;;;2.70;99.90;;;;;;5056291;28;20556;-67
2021/12/02 08:38:10;;;;;;;1.02;0.55;;;2.70;99.90;;;;;;5055870;28;20037;-67
2021/12/02 08:40:37;;;;;;;3.47;1.20;;;2.60;99.90;;;;;;5056363;28;20044;-66
2021/12/02 08:43:05;;;;;;;5.22;2.45;;;2.70;99.90;;;;;;5056123;28;20052;-67
2021/12/02 08:45:33;;;;;;;4.65;1.77;;;2.60;99.90;;;;;;5055732;28;20036;-65
2021/12/02 08:48:00;;;;;;;5.00;2.08;;;2.70;99.90;;;;;;5055391;28;20083;-66
2021/12/02 08:50:27;;;;;;;3.83;1.80;;;2.70;99.90;;;;;;5056033;28;20369;-66
2021/12/02 08:52:54;;;;;;;2.13;1.10;;;2.60;99.90;;;;;;5050644;28;20382;-65
2021/12/02 08:55:21;;;;;;;2.20;0.70;;;2.60;99.90;;;;;;5050828;28;20466;-65
2021/12/02 08:57:49;;;;;;;3.72;1.45;;;2.60;99.90;;;;;;5039219;28;20124;-66
2021/12/02 09:00:21;;;;;;;3.03;1.17;;;2.50;99.90;;;;;;5055420;28;20045;-66
2021/12/02 09:02:47;;;;;;;1.75;1.17;;;2.40;99.90;;;;;;5039136;28;20170;-67
2021/12/02 09:05:13;;;;;;;7.13;1.83;;;2.40;99.90;;;;;;5055841;28;20127;-65
2021/12/02 09:07:40;;;;;;;5.43;1.67;;;2.40;99.90;;;;;;5055591;28;20041;-65
2021/12/02 09:10:08;;;;;;;6.00;1.80;;;2.40;99.90;;;;;;5055306;28;20052;-65
2021/12/02 09:12:33;;;;;;;6.18;2.33;;;2.40;99.90;;;;;;5055535;28;20049;-65
2021/12/02 09:14:59;;;;;;;4.90;1.50;;;2.40;99.90;;;;;;5055135;28;20075;-65
2021/12/02 09:17:25;;;;;;;3.50;1.48;;;2.40;99.90;;;;;;5055331;28;20045;-66
2021/12/02 09:19:51;;;;;;;3.20;1.65;;;2.40;99.90;;;;;;5055217;28;20094;-66
2021/12/02 09:22:17;;;;;;;3.25;1.77;;;2.50;99.90;;;;;;5055238;28;20445;-65
2021/12/02 09:24:43;;;;;;;2.17;1.33;;;2.60;99.90;;;;;;5054876;28;20047;-65
2021/12/02 09:27:09;;;;;;;3.60;1.40;;;2.70;99.90;;;;;;5055288;28;20037;-67
2021/12/02 09:29:35;;;;;;;2.70;1.60;;;2.90;99.90;;;;;;5054872;28;20052;-66
2021/12/02 09:32:01;;;;;;;5.95;2.10;;;3.00;99.90;;;;;;5056263;28;20048;-66
2021/12/02 09:34:27;;;;;;;1.85;0.98;;;3.20;99.90;;;;;;5054848;28;20047;-66
2021/12/02 09:36:55;;;;;;;4.78;1.17;;;3.30;99.90;;;;;;5055199;28;20033;-65
2021/12/02 09:39:21;;;;;;;5.05;1.45;;;3.40;99.90;;;;;;5054163;28;20056;-66
2021/12/02 09:41:47;;;;;;;3.55;0.80;;;3.50;99.90;;;;;;5055347;28;20374;-66
2021/12/02 09:44:14;;;;;;;4.60;1.27;;;3.50;99.90;;;;;;5038250;28;20394;-66
2021/12/02 09:46:41;;;;;;;3.38;1.23;;;3.60;99.90;;;;;;5055863;28;20095;-65
2021/12/02 09:49:11;;;;;;;3.28;1.15;;;3.70;99.90;;;;;;5054862;28;20116;-66
2021/12/02 09:51:48;;;;;;;4.50;1.00;;;3.60;99.90;;;;;;5054893;28;20059;-65
2021/12/02 09:54:18;;;;;;;3.92;1.77;;;3.60;99.90;;;;;;5037482;28;20462;-65
2021/12/02 09:56:47;;;;;;;2.83;1.30;;;3.60;99.90;;;;;;5054374;28;20399;-65
2021/12/02 09:59:28;;;;;;;3.28;1.00;;;3.60;99.90;;;;;;5054934;28;20033;-65
2021/12/02 10:02:02;;;;;;;4.85;1.38;;;3.60;99.90;;;;;;5054789;28;20040;-65
2021/12/02 10:04:29;;;;;;;3.80;1.05;;;3.70;99.90;;;;;;5054323;28;20047;-65
2021/12/02 10:07:16;;;;;;;2.38;1.00;;;3.70;99.90;;;;;;5053407;28;20084;-65
2021/12/02 10:10:02;;;;;;;2.08;0.80;;;3.70;99.90;;;;;;5035589;28;20132;-66
2021/12/02 10:12:29;;;;;;;3.80;0.88;;;3.70;99.90;;;;;;5034494;28;20044;-64
2021/12/02 10:15:01;;;;;;;4.15;1.20;;;3.70;99.90;;;;;;5036181;28;20466;-65
2021/12/02 10:17:35;;;;;;;3.28;0.80;;;3.80;99.90;;;;;;5034062;28;20516;-66
2021/12/02 10:20:32;;;;;;;2.05;0.85;;;3.80;99.90;;;;;;5033857;28;20119;-65
2021/12/02 10:25:58;;;;;;;3.53;0.73;;;3.90;99.90;;;;;;5050007;28;20442;-65
2021/12/02 10:28:25;;;;;;;4.15;0.80;;;3.80;99.90;;;;;;5054877;28;20041;-65
2021/12/02 10:30:57;;;;;;;1.08;0.68;;;3.80;99.90;;;;;;5053975;28;20063;-65
2021/12/02 10:33:40;;;;;;;2.90;0.75;;;3.80;99.90;;;;;;5055397;28;20049;-65
2021/12/02 10:36:20;;;;;;;2.20;0.80;;;3.80;99.90;;;;;;5054854;28;20041;-65
2021/12/02 10:38:46;;;;;;;2.58;0.60;;;3.80;99.90;;;;;;5053480;28;20446;-65
2021/12/02 10:41:20;;;;;;;4.10;0.80;;;3.90;99.90;;;;;;5053837;28;20041;-66
2021/12/02 10:44:13;;;;;;;1.05;0.40;;;4.00;99.90;;;;;;5053968;28;20458;-65
2021/12/02 10:47:07;;;;;;;3.35;0.90;;;4.10;99.90;;;;;;5034919;28;20073;-65
2021/12/02 10:49:43;;;;;;;3.28;0.90;;;4.20;99.90;;;;;;5032406;28;20088;-67
2021/12/02 10:52:15;;;;;;;2.42;0.43;;;4.30;99.90;;;;;;5033587;28;20374;-66
2021/12/02 10:54:44;;;;;;;2.70;0.70;;;4.30;99.90;;;;;;5039378;28;20454;-66
2021/12/02 10:57:11;;;;;;;4.28;0.57;;;4.30;99.90;;;;;;5054518;28;20045;-66
2021/12/02 10:59:55;;;;;;;6.32;1.25;;;4.40;99.90;;;;;;5054322;28;20036;-65
2021/12/02 11:02:23;;;;;;;3.55;1.10;;;4.40;99.90;;;;;;5053238;28;20428;-65
2021/12/02 11:05:09;;;;;;;2.67;0.82;;;4.40;99.90;;;;;;5054339;28;20036;-65
2021/12/02 11:07:39;;;;;;;2.95;0.50;;;4.50;99.90;;;;;;5053371;28;20482;-66
2021/12/02 11:10:10;;;;;;;1.98;0.75;;;4.60;99.90;;;;;;5053832;28;20434;-66
2021/12/02 11:12:48;;;;;;;5.20;0.85;;;4.80;99.90;;;;;;5111428;27;20299;-64
2021/12/02 11:15:20;;;;;;;3.13;1.02;;;5.00;99.90;;;;;;5110182;28;20057;-65
2021/12/02 11:18:01;;;;;;;2.30;0.75;;;5.20;99.90;;;;;;5110078;28;20047;-66
2021/12/02 11:20:35;;;;;;;3.95;1.13;;;5.10;99.90;;;;;;5110530;28;20377;-65
2021/12/02 11:23:02;;;;;;;3.67;1.08;;;4.70;99.90;;;;;;5093404;28;20482;-65
2021/12/02 11:25:30;;;;;;;3.03;0.65;;;4.30;99.90;;;;;;5102976;28;20035;-66
2021/12/02 11:27:56;;;;;;;1.60;0.70;;;4.20;99.90;;;;;;5109693;28;20093;-67
2021/12/02 11:30:24;;;;;;;5.30;1.85;;;4.10;99.90;;;;;;5109749;28;20039;-66
2021/12/02 11:33:03;;;;;;;5.68;2.30;;;4.00;99.90;;;;;;5109818;28;20388;-65
2021/12/02 11:35:38;;;;;;;3.42;1.20;;;3.80;99.90;;;;;;5105131;28;20085;-64
2021/12/02 11:38:06;;;;;;;;;;;3.70;99.90;;;;;;5109893;28;20044;-66
2021/12/02 11:40:44;;;;;;;1.48;0.60;;;3.60;99.90;;;;;;5099562;28;20391;-66
2021/12/02 11:43:12;;;;;;;2.47;0.60;;;3.50;99.90;;;;;;5089571;28;20373;-66
2021/12/02 11:45:46;;;;;;;3.00;1.20;;;3.60;99.90;;;;;;5101554;28;20032;-65
2021/12/02 11:48:17;;;;;;;1.63;0.75;;;3.60;99.90;;;;;;5109619;28;20460;-65
2021/12/02 11:50:43;;;;;;;0.50;0.32;;;3.60;99.90;;;;;;5109498;28;20122;-66
2021/12/02 11:53:09;;;;;;;1.77;0.98;;;3.60;99.90;;;;;;5109729;28;20035;-65
2021/12/02 11:55:40;;;;;;;2.50;1.10;;;3.50;99.90;;;;;;5109559;28;20097;-66
2021/12/02 11:58:06;;;;;;;2.70;1.30;;;3.40;99.90;;;;;;5110403;28;20040;-65
2021/12/02 12:00:33;;;;;;;2.95;1.35;;;3.30;99.90;;;;;;5109142;28;20056;-65
2021/12/02 12:03:13;;;;;;;3.83;1.50;;;3.30;99.90;;;;;;5109493;28;20105;-65
2021/12/02 12:05:54;;;;;;;2.28;0.70;;;3.30;99.90;;;;;;5109485;28;20046;-66
2021/12/02 12:08:39;;;;;;;1.30;0.70;;;3.30;99.90;;;;;;5109630;28;20043;-65
2021/12/02 12:11:22;;;;;;;3.92;0.90;;;3.20;99.90;;;;;;5109112;28;20083;-66
2021/12/02 12:13:56;;;;;;;1.48;0.80;;;3.20;99.90;;;;;;5092558;28;20044;-66
2021/12/02 12:16:26;;;;;;;;;;;3.30;99.90;;;;;;5108997;28;20031;-65
2021/12/02 12:18:53;;;;;;;1.52;1.13;;;3.50;99.90;;;;;;5109861;28;20028;-65
2021/12/02 12:21:38;;;;;;;2.55;0.70;;;3.80;99.90;;;;;;5108968;28;20043;-65
2021/12/02 12:24:05;;;;;;;0.63;0.60;;;3.80;99.90;;;;;;5096650;28;20059;-66
2021/12/02 12:26:36;;;;;;;2.55;0.75;;;3.80;99.90;;;;;;5095151;28;20097;-65
2021/12/02 12:29:13;;;;;;;0.60;0.60;;;3.90;99.90;;;;;;5095104;28;20110;-65
2021/12/02 12:32:02;;;;;;;0.73;0.50;;;4.00;99.90;;;;;;5095079;28;20083;-65
2021/12/02 12:34:29;;;;;;;1.13;0.45;;;4.00;99.90;;;;;;5082620;28;20043;-65
2021/12/02 12:36:56;;;;;;;1.00;0.40;;;3.90;99.90;;;;;;5078137;28;20137;-65
2021/12/02 12:39:24;;;;;;;0.35;0.30;;;3.90;99.90;;;;;;5080144;28;20465;-65
2021/12/02 12:42:12;;;;;;;1.77;0.47;;;3.80;99.90;;;;;;5073309;28;20040;-65
2021/12/02 12:44:49;;;;;;;0.28;0.22;;;3.70;99.90;;;;;;5077702;28;20072;-64
2021/12/02 12:47:16;;;;;;;0.20;0.20;;;3.70;99.90;;;;;;5074758;28;20377;-64
2021/12/02 12:49:42;;;;;;;0.63;0.45;;;3.70;99.90;;;;;;5075351;28;20036;-65
2021/12/02 12:52:20;;;;;;;0.75;0.60;;;3.80;99.90;;;;;;5072865;28;20036;-66
2021/12/02 12:55:15;;;;;;;1.15;0.50;;;3.70;99.90;;;;;;5091447;28;20123;-65
2021/12/02 12:58:06;;;;;;;0.38;0.20;;;3.60;99.90;;;;;;5074164;28;20090;-65
2021/12/02 13:00:57;;;;;;;1.40;1.00;;;3.80;99.90;;;;;;5072941;28;20102;-65
2021/12/02 13:03:31;;;;;;;1.10;0.30;;;3.70;99.90;;;;;;5068905;28;20048;-66
2021/12/02 13:06:20;;;;;;;1.00;0.90;;;3.60;99.90;;;;;;5088667;28;20036;-65
2021/12/02 13:09:01;;;;;;;2.30;0.68;;;3.60;99.90;;;;;;5095086;28;20048;-66
2021/12/02 13:11:30;;;;;;;0.88;0.55;;;3.40;99.90;;;;;;5077434;28;20056;-65
2021/12/02 13:13:58;;;;;;;1.90;0.50;;;3.40;99.90;;;;;;5094617;28;20072;-65
2021/12/02 13:16:23;;;;;;;0.35;0.28;;;3.30;99.90;;;;;;5094170;28;20040;-65
2021/12/02 13:18:52;;;;;;;1.85;0.50;;;3.40;99.90;;;;;;5094556;28;20069;-66
2021/12/02 13:21:34;;;;;;;1.08;0.50;;;3.40;99.90;;;;;;5094225;28;20497;-66
2021/12/02 13:24:13;;;;;;;1.58;0.30;;;3.30;99.90;;;;;;5094430;28;20047;-65
2021/12/02 13:26:44;;;;;;;2.25;0.60;;;3.40;99.90;;;;;;5095168;28;20070;-67
2021/12/02 13:29:15;;;;;;;0.65;0.43;;;3.40;99.90;;;;;;5093606;28;20043;-66